Time;durP1;ratioP1;P1;durP2;ratioP2;P2;SDS_P1;SDS_P2;PMS_P1;PMS_P2;Temp;Humidity;BMP_temperature;BMP_pressure;BME280_temperature;BME280_humidity;BME280_pressure;Samples;Min_cycle;Max_cycle;Signal;HPM_P1;HPM_P2
2022/02/01 00:01:48;;;;;;;7.97;4.00;;;;;;;0.18;100.00;95988.91;5032822;28;20868;-75
2022/02/01 00:04:28;;;;;;;4.93;3.00;;;;;;;0.19;100.00;95990.56;5028599;28;20890;-76
2022/02/01 00:07:04;;;;;;;6.23;2.93;;;;;;;0.24;100.00;96000.63;5015467;28;20467;-75
2022/02/01 00:19:43;;;;;;;7.40;3.67;;;;;;;0.30;100.00;96014.88;5031235;28;20498;-75
2022/02/01 00:35:48;;;;;;;8.97;3.63;;;;;;;0.41;100.00;96025.38;5035004;28;20467;-76
2022/02/01 00:40:43;;;;;;;7.30;4.03;;;;;;;0.43;100.00;96028.66;5032781;28;20511;-76
2022/02/01 00:43:09;;;;;;;7.13;3.90;;;;;;;0.46;100.00;96038.81;5032446;28;20506;-76
2022/02/01 00:45:35;;;;;;;6.23;3.40;;;;;;;0.44;100.00;96038.09;5020790;28;20444;-76
2022/02/01 00:48:02;;;;;;;5.60;3.33;;;;;;;0.49;100.00;96045.53;5032482;28;20562;-76
2022/02/01 00:50:28;;;;;;;9.07;4.13;;;;;;;0.55;100.00;96045.97;5027245;28;20460;-76
2022/02/01 00:52:53;;;;;;;6.30;3.87;;;;;;;0.53;100.00;96059.94;5014570;28;20466;-76
2022/02/01 00:55:19;;;;;;;7.27;3.30;;;;;;;0.54;100.00;96054.66;5032564;28;20069;-76
2022/02/01 00:57:45;;;;;;;6.13;3.80;;;;;;;0.51;100.00;96052.28;5033044;28;20072;-76
2022/02/01 01:00:12;;;;;;;8.83;4.00;;;;;;;0.52;100.00;96059.09;5030871;28;20163;-76
2022/02/01 01:02:38;;;;;;;7.80;3.23;;;;;;;0.56;100.00;96057.97;5031589;28;20471;-76
2022/02/01 01:05:06;;;;;;;6.93;3.80;;;;;;;0.46;100.00;96068.09;5029748;28;20460;-76
2022/02/01 01:07:31;;;;;;;6.70;4.00;;;;;;;0.47;100.00;96068.94;5039085;28;20836;-76
2022/02/01 01:09:58;;;;;;;8.50;3.93;;;;;;;0.51;100.00;96093.69;5031778;28;20436;-76
2022/02/01 01:12:26;;;;;;;6.10;3.73;;;;;;;0.49;100.00;96102.47;5013638;28;20494;-76
2022/02/01 01:44:42;;;;;;;9.50;4.10;;;;;;;0.38;100.00;96178.19;5036741;28;20447;-76
2022/02/01 01:55:20;;;;;;;7.70;3.27;;;;;;;0.33;100.00;96175.06;5044082;28;20461;-75
2022/02/01 01:57:46;;;;;;;5.40;2.83;;;;;;;0.34;100.00;96171.56;5016055;28;21034;-75
2022/02/01 02:00:30;;;;;;;7.43;3.33;;;;;;;0.31;100.00;96176.94;5022517;28;20025;-75
2022/02/01 02:02:57;;;;;;;6.30;3.73;;;;;;;0.32;100.00;96188.91;5011776;28;20108;-75
2022/02/01 02:05:22;;;;;;;5.97;2.87;;;;;;;0.37;100.00;96182.53;5033287;28;21051;-75
2022/02/01 02:07:50;;;;;;;8.40;2.93;;;;;;;0.31;100.00;96193.28;5032156;28;20450;-75
2022/02/01 02:10:16;;;;;;;8.87;2.93;;;;;;;0.23;100.00;96185.16;5031138;28;20045;-74
2022/02/01 02:15:38;;;;;;;5.93;3.17;;;;;;;0.22;100.00;96211.94;5037239;28;20064;-75
2022/02/01 02:18:04;;;;;;;5.00;2.90;;;;;;;0.20;100.00;96218.97;5030838;28;20439;-75
2022/02/01 02:20:41;;;;;;;5.77;3.00;;;;;;;0.17;100.00;96209.66;5012746;28;20464;-75
2022/02/01 02:23:08;;;;;;;6.50;3.10;;;;;;;0.18;100.00;96216.47;5029232;28;20080;-75
2022/02/01 02:25:38;;;;;;;10.60;4.07;;;;;;;0.24;100.00;96212.69;5029034;28;20444;-76
2022/02/01 02:28:07;;;;;;;8.20;4.00;;;;;;;0.16;100.00;96212.31;5023165;28;20475;-75
2022/02/01 02:30:33;;;;;;;7.20;3.97;;;;;;;0.17;100.00;96212.25;5029395;28;20428;-75
2022/02/01 02:33:05;;;;;;;7.30;3.77;;;;;;;0.14;100.00;96204.69;5029352;28;20448;-75
2022/02/01 02:35:35;;;;;;;6.03;3.40;;;;;;;0.12;100.00;96201.34;5034194;28;20029;-74
2022/02/01 02:38:11;;;;;;;8.07;4.03;;;;;;;0.12;100.00;96197.94;5017534;28;20576;-74
2022/02/01 02:45:52;;;;;;;9.23;4.20;;;;;;;0.09;100.00;96234.31;5040997;28;20480;-74
2022/02/01 02:48:18;;;;;;;8.60;4.20;;;;;;;0.08;100.00;96238.66;5012165;28;21020;-75
2022/02/01 02:50:44;;;;;;;6.97;3.90;;;;;;;0.05;100.00;96238.84;5013762;28;20045;-74
2022/02/01 02:53:10;;;;;;;11.00;4.67;;;;;;;0.09;100.00;96218.81;5029636;28;20045;-74
2022/02/01 02:55:36;;;;;;;9.13;4.77;;;;;;;0.04;100.00;96228.63;5029265;28;20444;-74
2022/02/01 02:58:01;;;;;;;9.90;4.53;;;;;;;0.02;100.00;96223.53;5032213;28;20034;-74
2022/02/01 03:00:27;;;;;;;10.13;4.63;;;;;;;0.06;100.00;96230.16;5035795;28;20035;-74
2022/02/01 03:02:54;;;;;;;8.93;5.07;;;;;;;0.04;100.00;96237.22;5049726;28;20037;-74
2022/02/01 03:05:20;;;;;;;7.80;4.60;;;;;;;0.06;100.00;96240.50;5028393;28;20028;-74
2022/02/01 03:07:45;;;;;;;7.97;4.70;;;;;;;0.06;100.00;96242.25;5037305;28;20455;-74
2022/02/01 03:10:11;;;;;;;8.60;4.50;;;;;;;0.10;100.00;96241.16;5014180;28;20120;-74
2022/02/01 03:13:07;;;;;;;8.13;5.27;;;;;;;0.05;100.00;96245.78;5033587;28;20083;-74
2022/02/01 03:20:41;;;;;;;8.87;5.20;;;;;;;0.05;100.00;96254.38;5026222;28;20483;-74
2022/02/01 03:23:07;;;;;;;9.67;4.97;;;;;;;0.03;100.00;96240.69;5060450;28;20465;-74
2022/02/01 03:25:33;;;;;;;9.13;4.77;;;;;;;0.03;100.00;96255.38;5030453;28;20022;-74
2022/02/01 03:27:58;;;;;;;9.03;4.57;;;;;;;-0.02;100.00;96259.09;5040559;28;20044;-74
2022/02/01 03:30:24;;;;;;;9.67;4.97;;;;;;;-0.12;100.00;96263.16;5028304;28;20036;-74
2022/02/01 03:32:50;;;;;;;8.87;4.83;;;;;;;-0.16;100.00;96268.63;5029725;28;20029;-75
2022/02/01 03:35:15;;;;;;;7.27;4.23;;;;;;;-0.24;100.00;96258.72;5028279;28;20038;-74
2022/02/01 03:37:42;;;;;;;5.93;3.20;;;;;;;-0.32;100.00;96259.19;5012066;28;20052;-74
2022/02/01 03:40:12;;;;;;;5.63;2.63;;;;;;;-0.30;100.00;96249.59;5028118;28;20037;-74
2022/02/01 03:42:37;;;;;;;5.23;2.60;;;;;;;-0.36;100.00;96259.47;5013123;28;20472;-74
2022/02/01 03:45:04;;;;;;;5.33;2.57;;;;;;;-0.37;100.00;96268.13;5048402;28;21051;-74
2022/02/01 03:47:32;;;;;;;4.73;2.63;;;;;;;-0.36;100.00;96275.81;5029600;28;20029;-74
2022/02/01 03:50:02;;;;;;;3.97;2.10;;;;;;;-0.31;100.00;96262.59;5033428;28;20452;-74
2022/02/01 03:52:28;;;;;;;6.10;2.47;;;;;;;-0.43;100.00;96269.34;5033431;28;20476;-74
2022/02/01 03:54:53;;;;;;;6.03;2.97;;;;;;;-0.49;100.00;96273.09;5030353;28;20458;-74
2022/02/01 03:57:19;;;;;;;6.57;2.70;;;;;;;-0.54;100.00;96274.28;5015179;28;20610;-74
2022/02/01 03:59:46;;;;;;;5.60;3.10;;;;;;;-0.35;100.00;96277.44;5010606;28;20121;-74
2022/02/01 04:02:14;;;;;;;4.90;2.83;;;;;;;-0.55;100.00;96276.06;5026554;28;20033;-74
2022/02/01 04:04:40;;;;;;;6.20;2.93;;;;;;;-0.48;100.00;96286.84;5027663;28;20539;-75
2022/02/01 04:07:07;;;;;;;4.50;2.60;;;;;;;-0.57;100.00;96302.88;5030541;28;20992;-74
2022/02/01 04:09:35;;;;;;;5.73;2.87;;;;;;;-0.57;100.00;96297.72;5033221;28;20480;-74
2022/02/01 04:12:04;;;;;;;6.67;3.20;;;;;;;-0.53;100.00;96294.88;5012273;28;20465;-74
2022/02/01 04:14:32;;;;;;;6.50;2.97;;;;;;;-0.50;100.00;96309.38;5014961;28;20489;-74
2022/02/01 04:17:01;;;;;;;7.03;2.80;;;;;;;-0.43;100.00;96310.69;5030942;28;20471;-74
2022/02/01 04:19:28;;;;;;;5.67;2.97;;;;;;;-0.42;100.00;96333.00;5035600;28;20476;-76
2022/02/01 04:22:00;;;;;;;8.70;3.47;;;;;;;-0.42;100.00;96325.25;5033696;28;20475;-74
2022/02/01 04:24:30;;;;;;;7.57;3.60;;;;;;;-0.44;100.00;96339.16;5033593;28;20455;-76
2022/02/01 04:26:56;;;;;;;9.97;3.90;;;;;;;-0.41;100.00;96344.16;5029845;28;20440;-73
2022/02/01 04:29:22;;;;;;;7.77;4.23;;;;;;;-0.38;100.00;96344.81;5029850;28;21513;-74
2022/02/01 04:31:49;;;;;;;10.20;4.27;;;;;;;-0.28;100.00;96334.78;5034209;28;20459;-74
2022/02/01 04:34:15;;;;;;;9.30;4.00;;;;;;;-0.22;100.00;96324.06;5033803;28;20452;-74
2022/02/01 04:36:42;;;;;;;9.83;4.30;;;;;;;-0.33;100.00;96331.66;5032418;28;20466;-74
2022/02/01 04:39:08;;;;;;;16.67;4.50;;;;;;;-0.34;100.00;96338.53;5030994;28;20459;-74
2022/02/01 04:41:34;;;;;;;12.00;4.80;;;;;;;-0.37;100.00;96331.00;5017119;28;20868;-74
2022/02/01 04:44:02;;;;;;;11.67;4.93;;;;;;;-0.28;100.00;96339.94;5049833;28;20484;-74
2022/02/01 04:46:29;;;;;;;16.03;5.43;;;;;;;-0.36;100.00;96352.50;5040706;28;20433;-74
2022/02/01 04:49:01;;;;;;;11.43;5.03;;;;;;;-0.36;100.00;96352.50;5062926;28;20472;-74
2022/02/01 04:51:27;;;;;;;12.33;5.47;;;;;;;-0.37;100.00;96351.66;5027386;28;20456;-74
2022/02/01 04:53:54;;;;;;;18.30;5.27;;;;;;;-0.37;100.00;96351.66;5033503;28;20466;-74
2022/02/01 04:56:20;;;;;;;17.43;6.33;;;;;;;-0.40;100.00;96346.69;5030287;28;20544;-74
2022/02/01 04:58:46;;;;;;;16.17;6.13;;;;;;;-0.43;100.00;96341.69;5057242;28;20495;-74
2022/02/01 05:01:13;;;;;;;20.50;5.80;;;;;;;-0.48;100.00;96336.75;5024116;28;20090;-74
2022/02/01 05:03:42;;;;;;;21.10;6.67;;;;;;;-0.49;100.00;96339.44;5024248;28;20038;-74
2022/02/01 05:06:09;;;;;;;28.10;9.27;;;;;;;-0.45;100.00;96346.09;5065650;28;20857;-74
2022/02/01 05:08:34;;;;;;;18.87;8.37;;;;;;;-0.43;100.00;96362.34;5027185;28;20482;-74
2022/02/01 05:11:00;;;;;;;23.93;6.80;;;;;;;-0.40;100.00;96377.69;5020901;28;20460;-74
2022/02/01 05:16:16;;;;;;;28.03;7.20;;;;;;;-0.48;100.00;96405.69;5036453;28;20059;-74
2022/02/01 05:18:50;;;;;;;33.60;9.60;;;;;;;-0.47;100.00;96407.34;5065978;28;20562;-74
2022/02/01 05:21:22;;;;;;;36.07;10.53;;;;;;;-0.41;100.00;96419.09;5038227;28;20493;-74
2022/02/01 05:23:50;;;;;;;24.67;8.03;;;;;;;-0.40;100.00;96413.84;5016480;28;20484;-74
2022/02/01 05:26:17;;;;;;;24.33;7.50;;;;;;;-0.41;100.00;96417.31;5032971;28;20444;-75
2022/02/01 05:28:42;;;;;;;30.80;8.30;;;;;;;-0.47;100.00;96415.09;5034095;28;20493;-74
2022/02/01 05:31:09;;;;;;;25.83;7.33;;;;;;;-0.46;100.00;96419.34;5023839;28;20452;-74
2022/02/01 05:33:35;;;;;;;29.43;6.70;;;;;;;-0.40;100.00;96407.81;5036478;28;20448;-75
2022/02/01 05:36:03;;;;;;;24.93;6.90;;;;;;;-0.41;100.00;96412.16;5030922;28;20485;-75
2022/02/01 05:38:30;;;;;;;30.47;6.53;;;;;;;-0.44;100.00;96427.00;5013753;28;20534;-74
2022/02/01 05:40:55;;;;;;;24.40;7.77;;;;;;;-0.38;100.00;96435.25;5036938;28;20993;-74
2022/02/01 05:43:26;;;;;;;28.90;6.73;;;;;;;-0.40;100.00;96438.81;5014339;28;20480;-74
2022/02/01 05:45:55;;;;;;;28.77;8.47;;;;;;;-0.49;100.00;96430.69;5017877;28;20033;-74
2022/02/01 05:48:21;;;;;;;27.70;8.90;;;;;;;-0.48;100.00;96432.34;5028766;28;20459;-74
2022/02/01 05:50:52;;;;;;;26.07;6.00;;;;;;;-0.47;100.00;96425.44;5014942;28;20471;-75
2022/02/01 05:53:18;;;;;;;22.73;7.10;;;;;;;-0.53;100.00;96424.03;5028048;28;20832;-75
2022/02/01 05:55:46;;;;;;;24.23;6.13;;;;;;;-0.51;100.00;96419.59;5026762;28;20575;-74
2022/02/01 05:58:13;;;;;;;16.70;6.27;;;;;;;-0.50;100.00;96410.13;5025812;28;20049;-75
2022/02/01 06:00:40;;;;;;;24.43;6.27;;;;;;;-0.45;100.00;96410.69;5028035;28;20984;-73
2022/02/01 06:03:06;;;;;;;25.47;5.83;;;;;;;-0.54;100.00;96412.06;5022051;28;21001;-75
2022/02/01 06:05:32;;;;;;;29.07;6.20;;;;;;;-0.53;100.00;96420.63;5029669;28;20475;-75
2022/02/01 06:07:58;;;;;;;23.70;5.10;;;;;;;-0.56;100.00;96425.97;5035168;28;20029;-75
2022/02/01 06:10:24;;;;;;;21.10;5.80;;;;;;;-0.53;100.00;96436.97;5030536;28;21094;-75
2022/02/01 06:12:50;;;;;;;26.27;5.77;;;;;;;-0.53;100.00;96443.88;5013308;28;20517;-75
2022/02/01 06:15:19;;;;;;;18.53;5.17;;;;;;;-0.52;100.00;96448.13;5019081;28;20459;-75
2022/02/01 06:17:46;;;;;;;37.10;7.70;;;;;;;-0.52;100.00;96455.88;5034252;28;20029;-75
2022/02/01 06:20:13;;;;;;;22.13;4.67;;;;;;;-0.54;100.00;96453.38;5032570;28;20468;-75
2022/02/01 06:22:39;;;;;;;28.03;6.43;;;;;;;-0.56;100.00;96444.06;5039730;28;20463;-75
2022/02/01 06:25:06;;;;;;;22.90;4.60;;;;;;;-0.61;100.00;96452.03;5025918;28;20444;-75
2022/02/01 06:27:32;;;;;;;22.30;4.90;;;;;;;-0.62;100.00;96459.88;5039409;28;20036;-74
2022/02/01 06:29:58;;;;;;;17.30;5.20;;;;;;;-0.61;100.00;96471.88;5032072;28;20460;-75
2022/02/01 06:32:30;;;;;;;24.50;6.27;;;;;;;-0.53;100.00;96477.47;5030054;28;20067;-75
2022/02/01 06:34:56;;;;;;;18.67;5.40;;;;;;;-0.62;100.00;96490.88;5031833;28;20044;-74
2022/02/01 06:37:22;;;;;;;24.00;5.73;;;;;;;-0.65;100.00;96498.78;5011895;28;21064;-75
2022/02/01 06:39:47;;;;;;;21.77;5.33;;;;;;;-0.65;100.00;96499.63;5014500;28;20036;-75
2022/02/01 06:42:13;;;;;;;25.87;5.50;;;;;;;-0.62;100.00;96508.97;5021147;28;20600;-75
2022/02/01 06:44:40;;;;;;;16.50;4.30;;;;;;;-0.67;100.00;96491.13;5016140;28;20119;-74
2022/02/01 06:47:06;;;;;;;16.53;4.27;;;;;;;-0.68;100.00;96499.78;5039559;28;20084;-74
2022/02/01 06:49:31;;;;;;;18.00;4.30;;;;;;;-0.66;100.00;96510.06;5029339;28;20467;-77
2022/02/01 06:51:57;;;;;;;17.63;4.70;;;;;;;-0.59;100.00;96526.88;5020282;28;20037;-74
2022/02/01 06:54:23;;;;;;;21.87;5.27;;;;;;;-0.60;100.00;96530.38;5034118;28;20451;-74
2022/02/01 06:56:48;;;;;;;25.83;4.40;;;;;;;-0.68;100.00;96524.78;5033013;28;20655;-75
2022/02/01 06:59:15;;;;;;;17.13;4.60;;;;;;;-0.72;100.00;96537.03;5035818;28;20614;-74
2022/02/01 07:01:42;;;;;;;20.07;4.60;;;;;;;-0.71;100.00;96528.34;5014784;28;20039;-75
2022/02/01 07:04:08;;;;;;;21.73;4.70;;;;;;;-0.69;100.00;96541.19;5004223;28;20811;-77
2022/02/01 07:06:34;;;;;;;17.00;4.07;;;;;;;-0.65;100.00;96553.03;5016724;28;20522;-75
2022/02/01 07:09:02;;;;;;;24.37;6.00;;;;;;;-0.66;100.00;96553.94;5012558;28;20502;-75
2022/02/01 07:11:28;;;;;;;20.07;4.50;;;;;;;-0.70;100.00;96561.03;5012021;28;21033;-75
2022/02/01 07:13:54;;;;;;;30.90;4.60;;;;;;;-0.74;100.00;96568.13;5025536;28;20475;-76
2022/02/01 07:16:20;;;;;;;25.23;4.37;;;;;;;-0.68;100.00;96579.03;5027496;28;20468;-75
2022/02/01 07:18:47;;;;;;;21.60;4.67;;;;;;;-0.66;100.00;96574.63;5038269;28;20142;-75
2022/02/01 07:21:13;;;;;;;20.07;4.80;;;;;;;-0.65;100.00;96578.84;5035761;28;20431;-75
2022/02/01 07:23:40;;;;;;;16.63;4.27;;;;;;;-0.62;100.00;96578.69;5022894;28;20518;-75
2022/02/01 07:26:09;;;;;;;19.00;4.63;;;;;;;-0.56;100.00;96586.13;5030095;28;21298;-75
2022/02/01 07:28:37;;;;;;;20.77;3.60;;;;;;;-0.58;100.00;96585.34;5059908;28;20529;-75
2022/02/01 07:31:03;;;;;;;22.73;4.67;;;;;;;-0.59;100.00;96578.53;5012753;28;20495;-75
2022/02/01 07:33:30;;;;;;;15.77;3.27;;;;;;;-0.59;100.00;96565.63;5062055;28;20511;-77
2022/02/01 07:35:57;;;;;;;12.43;2.60;;;;;;;-0.56;100.00;96553.38;5027690;28;20454;-77
2022/02/01 07:38:25;;;;;;;21.47;4.00;;;;;;;-0.59;100.00;96552.69;5013500;28;20912;-77
2022/02/01 07:40:53;;;;;;;14.57;3.30;;;;;;;-0.60;100.00;96549.28;5015607;28;20492;-77
2022/02/01 07:43:20;;;;;;;18.77;3.77;;;;;;;-0.60;100.00;96562.22;5023400;28;20448;-77
2022/02/01 07:45:47;;;;;;;27.83;7.20;;;;;;;-0.59;100.00;96569.03;5029285;28;20850;-77
2022/02/01 07:48:13;;;;;;;23.07;4.50;;;;;;;-0.55;100.00;96561.94;5035138;28;20452;-77
2022/02/01 07:50:40;;;;;;;17.77;3.47;;;;;;;-0.54;100.00;96569.63;5041111;28;20459;-77
2022/02/01 07:53:09;;;;;;;20.43;4.20;;;;;;;-0.55;100.00;96572.28;5032594;28;20482;-77
2022/02/01 07:55:36;;;;;;;14.00;3.30;;;;;;;-0.53;100.00;96579.03;5037420;28;20451;-74
2022/02/01 07:58:03;;;;;;;12.57;3.70;;;;;;;-0.51;100.00;96582.34;5033986;28;20518;-75
2022/02/01 08:00:30;;;;;;;12.50;2.73;;;;;;;-0.51;100.00;96572.03;5031216;28;20464;-75
2022/02/01 08:02:55;;;;;;;17.60;2.50;;;;;;;-0.51;100.00;96566.84;5038173;28;20517;-74
2022/02/01 08:05:27;;;;;;;14.83;3.40;;;;;;;-0.49;100.00;96553.88;5008122;28;20552;-74
2022/02/01 08:07:53;;;;;;;26.73;9.93;;;;;;;-0.45;100.00;96568.28;5034312;28;20032;-74
2022/02/01 08:10:20;;;;;;;19.73;4.73;;;;;;;-0.44;100.00;96561.34;5038196;28;20463;-74
2022/02/01 08:20:58;;;;;;;23.37;5.00;;;;;;;-0.19;100.00;96573.78;5031065;28;20460;-74
2022/02/01 08:23:24;;;;;;;19.43;5.90;;;;;;;-0.19;100.00;96591.88;5045684;28;20844;-74
2022/02/01 08:25:51;;;;;;;19.73;3.30;;;;;;;-0.26;100.00;96587.03;5036093;28;20463;-74
2022/02/01 08:28:17;;;;;;;12.77;2.80;;;;;;;-0.22;100.00;96556.69;5020005;28;20101;-74
2022/02/01 08:30:43;;;;;;;23.23;4.90;;;;;;;-0.22;100.00;96569.59;5031470;28;20505;-74
2022/02/01 08:33:09;;;;;;;15.83;3.20;;;;;;;-0.16;100.00;96591.69;5044490;28;21126;-74
2022/02/01 08:35:36;;;;;;;16.70;4.33;;;;;;;-0.15;100.00;96601.94;5031935;28;20025;-74
2022/02/01 08:38:02;;;;;;;13.40;2.97;;;;;;;-0.18;100.00;96599.53;5034142;28;20091;-74
2022/02/01 08:40:28;;;;;;;18.87;3.90;;;;;;;-0.08;100.00;96610.19;5039202;28;20455;-74
2022/02/01 08:42:54;;;;;;;17.97;3.97;;;;;;;-0.12;100.00;96608.69;5015969;28;20539;-74
2022/02/01 08:45:23;;;;;;;15.70;3.47;;;;;;;-0.13;100.00;96605.28;5016012;28;20030;-74
2022/02/01 08:47:51;;;;;;;20.67;3.10;;;;;;;-0.16;100.00;96607.22;5062171;28;20545;-74
2022/02/01 08:50:21;;;;;;;15.40;2.77;;;;;;;-0.02;100.00;96584.00;5038780;28;21278;-73
2022/02/01 08:52:49;;;;;;;9.87;2.30;;;;;;;0.14;100.00;96569.31;5018307;28;20502;-74
2022/02/01 08:58:00;;;;;;;24.13;3.07;;;;;;;0.20;100.00;96574.13;5047948;28;20508;-74
2022/02/01 09:00:27;;;;;;;12.37;2.43;;;;;;;0.20;100.00;96573.28;5025084;28;20472;-74
2022/02/01 09:02:52;;;;;;;13.00;3.27;;;;;;;0.20;100.00;96575.84;5034622;28;20468;-73
2022/02/01 09:05:18;;;;;;;21.00;2.97;;;;;;;0.19;100.00;96566.44;5020050;28;21100;-74
2022/02/01 09:07:44;;;;;;;16.60;3.30;;;;;;;0.20;100.00;96568.97;5037660;28;20475;-74
2022/02/01 09:10:10;;;;;;;11.40;2.60;;;;;;;0.30;100.00;96573.59;5037861;28;20045;-73
2022/02/01 09:12:36;;;;;;;12.97;2.53;;;;;;;0.40;100.00;96577.31;5027949;28;20475;-74
2022/02/01 09:15:02;;;;;;;16.63;2.70;;;;;;;0.40;100.00;96572.13;5012773;28;20487;-74
2022/02/01 09:17:27;;;;;;;13.60;2.73;;;;;;;0.41;100.00;96566.06;5035675;28;20033;-74
2022/02/01 09:19:53;;;;;;;17.03;3.70;;;;;;;0.45;100.00;96568.38;5018176;28;20376;-74
2022/02/01 09:22:19;;;;;;;13.37;2.57;;;;;;;0.38;100.00;96561.06;5025102;28;20032;-74
2022/02/01 09:24:45;;;;;;;11.50;2.77;;;;;;;0.45;100.00;96576.13;5033136;28;20029;-74
2022/02/01 09:27:13;;;;;;;18.87;2.23;;;;;;;0.52;100.00;96568.84;5039602;28;20030;-74
2022/02/01 09:29:38;;;;;;;10.37;2.23;;;;;;;0.49;100.00;96570.78;5030871;28;20424;-74
2022/02/01 09:32:05;;;;;;;19.80;2.77;;;;;;;0.50;100.00;96587.97;5035404;28;20475;-74
2022/02/01 09:34:32;;;;;;;15.17;2.50;;;;;;;0.50;100.00;96586.19;5035449;28;20026;-74
2022/02/01 09:37:00;;;;;;;11.97;2.20;;;;;;;0.40;100.00;96574.72;5030770;28;20472;-74
2022/02/01 09:39:26;;;;;;;12.50;2.73;;;;;;;0.42;100.00;96570.28;5015013;28;20843;-74
2022/02/01 09:41:52;;;;;;;17.33;2.93;;;;;;;0.37;100.00;96568.00;5058234;28;20472;-74
2022/02/01 09:44:20;;;;;;;14.17;2.80;;;;;;;0.51;100.00;96564.59;5030698;28;20459;-74
2022/02/01 09:46:48;;;;;;;13.67;3.00;;;;;;;0.50;100.00;96560.31;5021930;28;20468;-74
2022/02/01 09:49:16;;;;;;;9.70;2.10;;;;;;;0.56;100.00;96538.44;5018831;28;20794;-74
2022/02/01 09:51:46;;;;;;;22.73;3.03;;;;;;;0.54;100.00;96548.91;5035560;28;20494;-74
2022/02/01 09:54:12;;;;;;;12.53;2.27;;;;;;;0.41;100.00;96560.88;5039692;28;20443;-74
2022/02/01 09:56:38;;;;;;;20.27;2.60;;;;;;;0.48;100.00;96549.25;5033214;28;20476;-74
2022/02/01 09:59:35;;;;;;;15.80;2.30;;;;;;;0.40;100.00;96554.03;5021455;28;20056;-74
2022/02/01 10:02:12;;;;;;;12.33;2.77;;;;;;;0.34;100.00;96570.75;5033220;28;20036;-74
2022/02/01 10:04:39;;;;;;;11.07;2.30;;;;;;;0.38;100.00;96567.06;5029158;28;20584;-74
2022/02/01 10:07:14;;;;;;;7.27;2.23;;;;;;;0.47;100.00;96553.59;5028113;28;20491;-74
2022/02/01 10:09:49;;;;;;;14.67;3.13;;;;;;;0.37;100.00;96560.22;5011935;28;20492;-75
2022/02/01 10:12:17;;;;;;;18.87;2.50;;;;;;;0.31;100.00;96555.41;5037941;28;20480;-74
2022/02/01 10:14:51;;;;;;;15.33;2.87;;;;;;;0.30;100.00;96558.06;5024460;28;20451;-74
2022/02/01 10:17:45;;;;;;;15.87;3.20;;;;;;;0.25;100.00;96554.91;5042181;28;20632;-75
2022/02/01 10:20:11;;;;;;;10.88;2.92;;;;;;;0.17;100.00;96558.78;5035318;28;20463;-76
2022/02/01 10:22:38;;;;;;;15.43;4.17;;;;;;;0.15;100.00;96552.84;5023271;28;20052;-74
2022/02/01 10:25:18;;;;;;;13.97;3.17;;;;;;;0.22;100.00;96540.41;5022366;28;20974;-74
2022/02/01 10:28:02;;;;;;;11.53;2.63;;;;;;;0.38;100.00;96545.53;5032711;28;20504;-74
2022/02/01 10:30:31;;;;;;;;;;;;;;;0.42;100.00;96541.84;5031263;28;21020;-74
2022/02/01 10:35:55;;;;;;;14.17;2.80;;;;;;;0.56;100.00;96534.09;5020509;28;21000;-75
2022/02/01 10:38:20;;;;;;;8.23;2.60;;;;;;;0.94;100.00;96518.03;5030031;28;20810;-76
2022/02/01 10:40:51;;;;;;;11.33;2.70;;;;;;;0.90;100.00;96519.13;5034331;28;20478;-75
2022/02/01 10:43:21;;;;;;;12.53;2.37;;;;;;;1.15;100.00;96513.31;5011260;28;20034;-74
2022/02/01 10:45:50;;;;;;;14.77;4.00;;;;;;;1.00;100.00;96502.09;5036751;28;20503;-74
2022/02/01 10:48:20;;;;;;;12.50;3.33;;;;;;;0.86;100.00;96502.13;5031940;28;20555;-77
2022/02/01 10:51:08;;;;;;;14.07;3.73;;;;;;;0.86;100.00;96521.06;5074316;28;20452;-75
2022/02/01 10:53:37;;;;;;;19.80;5.60;;;;;;;1.12;100.00;96505.72;5028647;28;20856;-76
2022/02/01 10:56:09;;;;;;;14.03;3.37;;;;;;;1.28;100.00;96506.44;5014300;28;20483;-78
2022/02/01 10:58:36;;;;;;;12.07;2.77;;;;;;;1.32;100.00;96501.91;5030867;28;21065;-77
2022/02/01 11:01:04;;;;;;;11.10;2.60;;;;;;;1.28;100.00;96506.44;5036675;28;20044;-78
2022/02/01 11:03:31;;;;;;;11.83;3.03;;;;;;;1.24;100.00;96494.59;5028716;28;20472;-75
2022/02/01 11:05:58;;;;;;;12.00;2.97;;;;;;;1.15;100.00;96480.47;5026709;28;20033;-75
2022/02/01 11:08:27;;;;;;;11.73;4.50;;;;;;;1.33;100.00;96472.44;5009117;28;20476;-74
2022/02/01 11:10:55;;;;;;;10.77;3.20;;;;;;;1.61;100.00;96461.16;5029955;28;20032;-74
2022/02/01 11:13:22;;;;;;;11.60;3.27;;;;;;;1.60;100.00;96462.91;5011961;28;20072;-76
2022/02/01 11:16:04;;;;;;;19.17;3.80;;;;;;;1.35;100.00;96463.66;5030996;28;20536;-75
2022/02/01 11:18:32;;;;;;;11.53;3.20;;;;;;;1.37;100.00;96448.00;5054707;28;20128;-74
2022/02/01 11:21:14;;;;;;;12.47;2.60;;;;;;;1.26;100.00;96433.16;5013072;28;20033;-74
2022/02/01 11:23:48;;;;;;;11.40;2.87;;;;;;;1.39;100.00;96420.25;5021726;28;20470;-74
2022/02/01 11:26:37;;;;;;;13.40;3.27;;;;;;;1.22;100.00;96413.56;5039911;28;20021;-75
2022/02/01 11:31:47;;;;;;;15.88;3.53;;;;;;;1.07;100.00;96393.78;5034473;28;20041;-74
2022/02/01 11:34:27;;;;;;;11.17;2.93;;;;;;;1.02;100.00;96386.31;5035828;28;20040;-74
2022/02/01 11:36:59;;;;;;;11.77;2.50;;;;;;;0.93;100.00;96389.47;5054628;28;20491;-74
2022/02/01 11:39:26;;;;;;;10.23;2.70;;;;;;;0.86;100.00;96370.91;5026951;28;21588;-74
2022/02/01 11:41:53;;;;;;;15.93;2.63;;;;;;;0.89;100.00;96380.25;5028021;28;20522;-74
2022/02/01 11:44:26;;;;;;;13.47;3.97;;;;;;;0.83;100.00;96385.81;5032268;28;20604;-74
2022/02/01 11:47:05;;;;;;;11.23;2.65;;;;;;;0.75;100.00;96378.53;5010965;28;20460;-74
2022/02/01 11:49:32;;;;;;;15.47;2.83;;;;;;;0.68;100.00;96370.31;5032773;28;20036;-75
2022/02/01 11:52:10;;;;;;;10.97;3.23;;;;;;;0.77;100.00;96355.13;5032994;28;20463;-74
2022/02/01 11:54:36;;;;;;;14.37;2.00;;;;;;;0.69;100.00;96364.19;5022120;28;20499;-74
2022/02/01 11:57:16;;;;;;;10.30;2.40;;;;;;;0.72;100.00;96347.66;5019442;28;20479;-73
2022/02/01 11:59:57;;;;;;;6.70;1.97;;;;;;;0.73;100.00;96348.47;5042695;28;20443;-74
2022/02/01 12:02:40;;;;;;;10.63;2.13;;;;;;;0.69;100.00;96343.50;5015318;28;20507;-74
2022/02/01 12:05:18;;;;;;;6.10;1.50;;;;;;;0.73;100.00;96338.13;5031331;28;20455;-74
2022/02/01 12:08:02;;;;;;;6.80;2.13;;;;;;;0.65;100.00;96331.69;5022530;28;20487;-74
2022/02/01 12:10:28;;;;;;;7.03;2.20;;;;;;;0.65;100.00;96323.09;5028649;28;20480;-74
2022/02/01 12:12:58;;;;;;;6.43;2.03;;;;;;;0.62;100.00;96326.69;5031372;28;20033;-74
2022/02/01 12:15:33;;;;;;;8.43;2.10;;;;;;;0.60;100.00;96332.88;5022012;28;20344;-74
2022/02/01 12:18:23;;;;;;;8.87;1.50;;;;;;;0.54;100.00;96328.09;5026392;28;20502;-73
2022/02/01 12:21:18;;;;;;;5.83;1.70;;;;;;;0.53;100.00;96327.25;5029135;28;20482;-74
2022/02/01 12:23:48;;;;;;;9.67;2.20;;;;;;;0.61;100.00;96319.88;5022669;28;20829;-74
2022/02/01 12:26:21;;;;;;;11.33;2.50;;;;;;;0.52;100.00;96322.19;5060122;28;20455;-74
2022/02/01 12:28:48;;;;;;;7.47;1.53;;;;;;;0.57;100.00;96312.38;5043179;28;20487;-75
2022/02/01 12:31:14;;;;;;;7.37;1.60;;;;;;;0.59;100.00;96297.59;5035544;28;20557;-74
2022/02/01 12:33:43;;;;;;;12.30;1.97;;;;;;;0.59;100.00;96298.41;5036032;28;20563;-74
2022/02/01 12:36:10;;;;;;;5.83;1.33;;;;;;;0.57;100.00;96295.13;5025702;28;20472;-74
2022/02/01 12:38:36;;;;;;;5.97;1.60;;;;;;;0.67;100.00;96292.75;5032211;28;20995;-74
2022/02/01 12:41:19;;;;;;;7.93;1.27;;;;;;;0.54;100.00;96292.72;5021469;28;20472;-74
2022/02/01 12:46:52;;;;;;;8.20;1.80;;;;;;;0.46;100.00;96279.41;5028466;28;20029;-75
2022/02/01 12:49:44;;;;;;;7.87;3.57;;;;;;;0.50;100.00;96267.94;5019784;28;20470;-74
2022/02/01 12:52:27;;;;;;;7.20;2.33;;;;;;;0.52;100.00;96265.28;5032741;28;20488;-74
2022/02/01 12:55:15;;;;;;;8.52;2.35;;;;;;;0.53;100.00;96267.75;5027260;28;21035;-74
2022/02/01 12:57:42;;;;;;;8.57;1.93;;;;;;;0.58;100.00;96257.13;5036501;28;20120;-74
2022/02/01 13:00:17;;;;;;;9.87;2.70;;;;;;;0.61;100.00;96257.75;5040710;28;20510;-75
2022/02/01 13:02:44;;;;;;;9.83;2.27;;;;;;;0.56;100.00;96246.84;5030913;28;20480;-75
2022/02/01 13:05:13;;;;;;;11.73;2.97;;;;;;;0.56;100.00;96248.63;5015795;28;20550;-74
2022/02/01 13:16:36;;;;;;;11.03;3.20;;;;;;;0.44;100.00;96220.03;5042013;28;20440;-74
2022/02/01 13:21:39;;;;;;;11.50;2.60;;;;;;;0.22;100.00;96211.94;5031619;28;20559;-74
2022/02/01 13:24:05;;;;;;;9.97;2.47;;;;;;;0.13;100.00;96194.41;5015621;28;21036;-74